MDT,Max TemperatureF,Mean TemperatureF,Min TemperatureF,Max Dew PointF,MeanDew PointF,Min DewpointF,Max Humidity, Mean Humidity, Min Humidity, Max Sea Level PressureIn, Mean Sea Level PressureIn, Min Sea Level PressureIn, Max VisibilityMiles, Mean VisibilityMiles, Min VisibilityMiles, Max Wind SpeedMPH, Mean Wind SpeedMPH, Max Gust SpeedMPH,PrecipitationIn, CloudCover, Events, WindDirDegrees
2014-4-1,24,14,3,12,7,-4,100,77,54,30.09,30.01,29.97,10,9,0,12,3,,0.00,1,,72
2014-4-2,28,19,10,25,18,5,93,85,74,29.99,29.91,29.87,10,8,1,15,8,,0.01,6,,85
2014-4-3,37,30,24,28,24,21,93,80,65,30.08,30.01,29.90,10,10,10,14,6,17,0.02,6,,307
2014-4-4,48,34,19,36,27,16,100,78,57,30.08,29.90,29.76,10,8,0,21,7,24,0.00,1,,162
2014-4-5,59,42,26,37,27,23,93,63,29,29.84,29.80,29.76,10,10,10,18,9,26,0.00,2,,231
2014-4-6,59,44,30,32,26,19,86,51,23,29.92,29.81,29.76,10,10,10,23,8,32,0.00,2,,266
2014-4-7,55,44,32,32,26,21,87,53,26,30.10,30.05,29.93,10,10,10,25,13,32,0.00,1,,310
2014-4-8,69,48,28,37,29,21,86,52,21,30.06,29.92,29.76,10,10,10,23,7,29,0.00,0,,233
2014-4-9,71,53,35,36,29,19,75,47,25,29.88,29.74,29.61,10,10,10,36,12,47,0.00,0,,267
2014-4-10,60,43,26,30,22,18,74,47,20,29.94,29.89,29.83,10,10,10,24,9,32,0.00,1,,281
2014-4-11,62,45,28,30,25,19,80,51,23,29.94,29.82,29.69,10,10,10,14,6,17,0.00,1,,134
2014-4-12,44,35,26,34,27,16,87,63,49,30.15,29.91,29.71,10,10,10,26,15,34,0.00,5,,313
2014-4-13,39,31,23,23,14,10,75,53,33,30.30,30.24,30.16,10,10,6,21,14,25,0.00,5,,336
2014-4-14,41,30,19,21,12,5,93,53,24,30.30,30.18,29.96,10,10,10,13,9,,0.00,2,,17
2014-4-15,59,42,26,25,18,9,59,40,22,29.96,29.68,29.54,10,10,10,21,8,29,0.00,1,,115
2014-4-16,37,30,24,21,20,18,74,65,52,30.20,30.03,29.67,10,10,8,15,11,17,0.00,5,,59
2014-4-17,53,38,24,34,27,19,86,61,44,30.20,30.04,29.90,10,10,10,17,9,23,0.00,5,,114
2014-4-18,64,48,33,45,34,27,93,64,34,29.90,29.75,29.62,10,10,9,29,10,39,0.00,3,,105
2014-4-19,64,48,33,34,27,19,81,47,20,29.98,29.91,29.81,10,10,10,28,13,34,0.00,0,,245
2014-4-20,66,50,35,34,25,21,70,39,18,30.13,29.97,29.86,10,10,10,34,10,47,0.00,0,,274
2014-4-21,66,48,30,32,25,19,80,42,17,30.24,30.16,30.07,10,10,10,14,7,21,0.00,0,,271
2014-4-22,75,65,55,36,33,30,41,31,23,29.66,29.58,29.48,10,10,10,28,21,33,0.00,0,,114
2014-4-23,57,47,37,43,30,19,82,47,25,29.72,29.54,29.37,10,10,8,31,17,41,0.00,2,,275
2014-4-24,60,46,33,32,24,19,60,40,22,29.80,29.76,29.72,10,10,10,25,13,32,0.00,1,,270
2014-4-25,69,53,37,37,33,28,75,49,25,29.80,29.75,29.70,10,10,10,13,6,17,0.00,2,,229
2014-4-26,71,58,46,43,37,32,82,50,31,29.69,29.54,29.42,10,10,10,28,16,37,0.00,3,,100
2014-4-27,41,37,33,37,36,30,100,89,81,29.66,29.60,29.55,10,8,3,14,8,,0.59,8,,331
2014-4-28,41,38,35,36,33,28,93,86,65,30.07,29.80,29.62,10,10,7,24,11,33,0.06,7,,335
2014-4-29,42,38,33,36,31,28,93,82,65,30.36,30.26,30.08,10,9,2,25,18,31,0.07,7,,332
2014-4-30,55,44,33,34,31,28,87,64,36,30.37,30.31,30.25,10,10,10,26,18,37,0.00,4,,337